Time;durP1;ratioP1;P1;durP2;ratioP2;P2;SDS_P1;SDS_P2;PMS_P1;PMS_P2;Temp;Humidity;BMP_temperature;BMP_pressure;BME280_temperature;BME280_humidity;BME280_pressure;Samples;Min_cycle;Max_cycle;Signal;HPM_P1;HPM_P2
2022/03/24 00:01:52;;;;;;;21.98;15.60;;;12.10;45.60;;;;;;5069856;28;20116;-59
2022/03/24 00:04:18;;;;;;;19.48;15.18;;;12.10;46.20;;;;;;5069763;28;20170;-63
2022/03/24 00:06:43;;;;;;;22.50;14.48;;;12.00;46.60;;;;;;5067284;28;20562;-62
2022/03/24 00:09:09;;;;;;;20.85;15.55;;;12.00;46.50;;;;;;5068224;28;20036;-62
2022/03/24 00:11:35;;;;;;;19.90;15.85;;;12.00;45.70;;;;;;5068366;28;20032;-62
2022/03/24 00:14:00;;;;;;;22.40;16.05;;;11.90;45.90;;;;;;5051090;28;20035;-58
2022/03/24 00:16:26;;;;;;;20.58;16.52;;;11.90;45.20;;;;;;5069467;28;20110;-62
2022/03/24 00:18:52;;;;;;;21.63;15.68;;;11.90;44.00;;;;;;5049179;28;20032;-62
2022/03/24 00:21:18;;;;;;;25.35;16.98;;;11.80;43.60;;;;;;5068970;28;20495;-59
2022/03/24 00:23:45;;;;;;;22.48;16.65;;;11.80;43.00;;;;;;5067750;28;20152;-63
2022/03/24 00:26:11;;;;;;;23.75;16.90;;;11.70;42.90;;;;;;5068660;28;20063;-63
2022/03/24 00:28:37;;;;;;;23.45;17.15;;;11.70;43.10;;;;;;5050051;28;20075;-59
2022/03/24 00:31:03;;;;;;;23.30;16.85;;;11.60;43.50;;;;;;5068798;28;20037;-63
2022/03/24 00:33:29;;;;;;;26.00;16.95;;;11.60;43.00;;;;;;5068346;28;20383;-63
2022/03/24 00:35:56;;;;;;;22.65;16.58;;;11.50;43.20;;;;;;5071145;28;20092;-63
2022/03/24 00:38:22;;;;;;;24.65;18.33;;;11.50;43.20;;;;;;5057029;28;20032;-63
2022/03/24 00:40:48;;;;;;;23.17;17.05;;;11.40;43.30;;;;;;5071738;28;20403;-62
2022/03/24 00:43:14;;;;;;;21.48;16.75;;;11.40;43.20;;;;;;5068264;28;20205;-59
2022/03/24 00:45:40;;;;;;;25.67;17.63;;;11.30;43.90;;;;;;5085070;28;20481;-59
2022/03/24 00:48:07;;;;;;;21.27;16.50;;;11.30;43.50;;;;;;5067878;28;20383;-63
2022/03/24 00:50:33;;;;;;;23.27;17.30;;;11.20;43.50;;;;;;5068704;28;20025;-59
2022/03/24 00:52:58;;;;;;;21.75;16.70;;;11.10;43.30;;;;;;5063898;28;20029;-59
2022/03/24 00:55:25;;;;;;;29.55;17.27;;;11.10;43.40;;;;;;5057797;28;20017;-58
2022/03/24 00:57:53;;;;;;;22.85;16.63;;;11.00;43.60;;;;;;5068959;28;20027;-59
2022/03/24 01:00:20;;;;;;;22.75;16.63;;;10.90;43.80;;;;;;5068895;28;20028;-59
2022/03/24 01:02:52;;;;;;;24.85;16.25;;;10.90;43.80;;;;;;5050644;28;20033;-63
2022/03/24 01:05:18;;;;;;;25.90;17.15;;;10.80;44.40;;;;;;5068844;28;20074;-64
2022/03/24 01:07:45;;;;;;;24.08;15.82;;;10.80;44.20;;;;;;5068368;28;20493;-59
2022/03/24 01:10:15;;;;;;;21.83;15.88;;;10.70;44.50;;;;;;5050042;28;20500;-59
2022/03/24 01:12:42;;;;;;;22.55;15.82;;;10.60;44.30;;;;;;5068132;28;20028;-60
2022/03/24 01:15:09;;;;;;;23.35;16.25;;;10.60;44.50;;;;;;5068324;28;20090;-60
2022/03/24 01:17:37;;;;;;;21.90;16.45;;;10.60;44.50;;;;;;5068669;28;20568;-59
2022/03/24 01:20:04;;;;;;;26.42;16.70;;;10.50;44.40;;;;;;5068638;28;20494;-60
2022/03/24 01:22:30;;;;;;;23.23;16.33;;;10.40;44.50;;;;;;5068514;28;20020;-60
2022/03/24 01:24:56;;;;;;;20.63;16.08;;;10.40;44.80;;;;;;5049683;28;20081;-59
2022/03/24 01:27:26;;;;;;;22.13;15.55;;;10.30;45.70;;;;;;5068880;28;20131;-60
2022/03/24 01:29:54;;;;;;;22.73;16.00;;;10.30;46.40;;;;;;5068232;28;20063;-60
2022/03/24 01:32:20;;;;;;;25.55;17.17;;;10.20;46.60;;;;;;5067807;28;20252;-60
2022/03/24 01:34:46;;;;;;;22.88;16.30;;;10.20;46.00;;;;;;5056081;28;20040;-60
2022/03/24 01:37:12;;;;;;;23.50;16.00;;;10.10;46.10;;;;;;5066930;28;20051;-60
2022/03/24 01:39:38;;;;;;;22.77;15.77;;;10.10;45.90;;;;;;5067699;28;20056;-60
2022/03/24 01:42:05;;;;;;;23.23;17.15;;;10.00;45.70;;;;;;5068692;28;20032;-59
2022/03/24 01:44:31;;;;;;;26.98;16.70;;;10.00;45.70;;;;;;5068319;28;20043;-60
2022/03/24 01:47:07;;;;;;;22.08;16.23;;;9.90;46.20;;;;;;5050133;28;20430;-60
2022/03/24 01:49:39;;;;;;;26.05;19.08;;;9.90;47.00;;;;;;5050155;28;20163;-60
2022/03/24 01:52:10;;;;;;;22.33;16.25;;;9.80;46.90;;;;;;5071361;28;20020;-60
2022/03/24 01:54:39;;;;;;;23.88;17.40;;;9.80;47.00;;;;;;5070197;28;20372;-64
2022/03/24 01:57:06;;;;;;;24.13;17.40;;;9.80;47.50;;;;;;5070426;28;20082;-64
2022/03/24 01:59:36;;;;;;;21.42;16.15;;;9.80;48.20;;;;;;5068623;28;20047;-64
2022/03/24 02:02:07;;;;;;;22.33;17.05;;;9.70;48.10;;;;;;5054121;28;20483;-60
2022/03/24 02:04:35;;;;;;;26.42;17.60;;;9.60;48.40;;;;;;5053123;28;20037;-59
2022/03/24 02:07:05;;;;;;;27.02;17.98;;;9.60;47.90;;;;;;5071908;28;20115;-60
2022/03/24 02:09:31;;;;;;;29.67;18.13;;;9.60;47.90;;;;;;5065572;28;20036;-64
2022/03/24 02:11:57;;;;;;;28.52;17.50;;;9.50;47.80;;;;;;5045949;28;20056;-64
2022/03/24 02:14:23;;;;;;;24.25;16.30;;;9.50;47.80;;;;;;5075538;28;20420;-64
2022/03/24 02:16:49;;;;;;;26.17;17.70;;;9.50;47.90;;;;;;5070908;28;20490;-64
2022/03/24 02:19:20;;;;;;;26.13;17.38;;;9.50;48.20;;;;;;5070470;28;20394;-64
2022/03/24 02:21:46;;;;;;;25.98;17.27;;;9.40;48.30;;;;;;5053011;28;20040;-64
2022/03/24 02:24:14;;;;;;;27.95;17.98;;;9.40;48.20;;;;;;5049121;28;20040;-64
2022/03/24 02:26:42;;;;;;;27.88;16.67;;;9.40;48.30;;;;;;5049454;28;20082;-64
2022/03/24 02:29:10;;;;;;;28.55;17.65;;;9.40;48.70;;;;;;5070952;28;20044;-64
2022/03/24 02:31:43;;;;;;;26.10;17.90;;;9.30;48.40;;;;;;5067518;28;20047;-60
2022/03/24 02:36:55;;;;;;;25.20;18.20;;;9.30;49.00;;;;;;5069110;28;20090;-64
2022/03/24 02:39:22;;;;;;;26.92;17.95;;;9.30;49.50;;;;;;5070751;28;20032;-64
2022/03/24 02:41:51;;;;;;;26.35;18.00;;;9.20;49.40;;;;;;5070795;28;20437;-60
2022/03/24 02:44:25;;;;;;;24.55;17.20;;;9.20;49.50;;;;;;5071698;28;20027;-60
2022/03/24 02:46:53;;;;;;;25.45;18.00;;;9.20;50.00;;;;;;5071148;28;20052;-59
2022/03/24 02:49:22;;;;;;;26.02;18.00;;;9.20;49.90;;;;;;5071294;28;20029;-64
2022/03/24 02:51:52;;;;;;;30.45;17.55;;;9.20;49.90;;;;;;5071176;28;20021;-64
2022/03/24 02:54:19;;;;;;;24.13;17.55;;;9.10;49.90;;;;;;5070504;28;20111;-60
2022/03/24 02:56:45;;;;;;;25.17;17.95;;;9.10;50.00;;;;;;5070661;28;20044;-60
2022/03/24 02:59:12;;;;;;;26.98;17.55;;;9.10;50.30;;;;;;5052650;28;20033;-64
2022/03/24 03:01:41;;;;;;;24.25;17.58;;;9.10;50.30;;;;;;5068882;28;20040;-59
2022/03/24 03:04:08;;;;;;;25.45;17.42;;;9.00;50.90;;;;;;5070515;28;20383;-64
2022/03/24 03:06:34;;;;;;;27.77;17.92;;;9.00;51.40;;;;;;5070606;28;20032;-64
2022/03/24 03:09:01;;;;;;;29.15;18.55;;;9.00;51.10;;;;;;5070257;28;20122;-64
2022/03/24 03:11:30;;;;;;;27.40;17.23;;;8.90;51.10;;;;;;5070908;28;20420;-64
2022/03/24 03:13:56;;;;;;;27.27;18.58;;;8.90;50.90;;;;;;5053370;28;20085;-64
2022/03/24 03:16:22;;;;;;;25.65;18.15;;;8.90;51.50;;;;;;5071070;28;20131;-64
2022/03/24 03:18:48;;;;;;;27.23;18.70;;;8.90;51.50;;;;;;5070252;28;20028;-64
2022/03/24 03:21:16;;;;;;;28.52;19.25;;;8.90;51.90;;;;;;5070193;28;20043;-60
2022/03/24 03:23:43;;;;;;;26.08;18.30;;;8.90;51.40;;;;;;5070187;28;20029;-59
2022/03/24 03:26:10;;;;;;;26.40;18.02;;;8.90;51.40;;;;;;5070444;28;20037;-60
2022/03/24 03:28:36;;;;;;;24.05;18.00;;;8.80;50.90;;;;;;5052170;28;20431;-63
2022/03/24 03:31:02;;;;;;;25.38;18.50;;;8.80;51.30;;;;;;5070152;28;20028;-64
2022/03/24 03:33:29;;;;;;;26.65;18.88;;;8.80;51.40;;;;;;5052212;28;20058;-60
2022/03/24 03:35:54;;;;;;;28.83;19.50;;;8.80;51.50;;;;;;5070371;28;20032;-60
2022/03/24 03:38:21;;;;;;;27.65;18.88;;;8.80;51.50;;;;;;5035470;28;20036;-59
2022/03/24 03:40:47;;;;;;;27.98;19.05;;;8.80;51.70;;;;;;5051731;28;20062;-59
2022/03/24 03:43:14;;;;;;;24.92;18.92;;;8.80;52.10;;;;;;5067992;28;20455;-60
2022/03/24 03:45:44;;;;;;;25.42;18.55;;;8.80;52.50;;;;;;5069063;28;20039;-64
2022/03/24 03:48:10;;;;;;;28.05;20.10;;;8.80;53.30;;;;;;5050397;28;20029;-64
2022/03/24 03:50:37;;;;;;;28.80;20.42;;;8.80;53.10;;;;;;5069730;28;20384;-64
2022/03/24 03:53:03;;;;;;;28.67;20.95;;;8.80;52.60;;;;;;5051968;28;20029;-64
2022/03/24 03:55:29;;;;;;;31.05;20.50;;;8.80;51.70;;;;;;5069351;28;20023;-64
2022/03/24 03:57:55;;;;;;;37.45;20.73;;;8.70;51.60;;;;;;5070004;28;20468;-64
2022/03/24 04:03:05;;;;;;;28.15;19.92;;;8.70;51.40;;;;;;5057223;28;20134;-60
2022/03/24 04:05:31;;;;;;;30.95;21.05;;;8.70;51.60;;;;;;5059820;28;20021;-60
2022/03/24 04:07:58;;;;;;;26.10;20.15;;;8.60;52.20;;;;;;5062659;28;20458;-60
2022/03/24 04:10:26;;;;;;;30.38;20.83;;;8.60;52.50;;;;;;5068716;28;20027;-63
2022/03/24 04:12:51;;;;;;;28.98;21.58;;;8.60;53.10;;;;;;5068051;28;20074;-60
2022/03/24 04:15:18;;;;;;;28.27;21.33;;;8.50;53.20;;;;;;5065609;28;20383;-60
2022/03/24 04:17:44;;;;;;;31.52;22.00;;;8.50;53.50;;;;;;5066017;28;20029;-64
2022/03/24 04:20:12;;;;;;;28.25;19.73;;;8.50;53.70;;;;;;5051685;28;20540;-63
2022/03/24 04:22:37;;;;;;;30.20;21.58;;;8.40;53.90;;;;;;5051978;28;20047;-64
2022/03/24 04:25:05;;;;;;;30.27;20.88;;;8.40;54.20;;;;;;5077920;28;20028;-64
2022/03/24 04:27:31;;;;;;;32.38;21.17;;;8.30;54.10;;;;;;5066310;28;20112;-64
2022/03/24 04:29:56;;;;;;;29.23;21.05;;;8.30;53.90;;;;;;5048550;28;20155;-62
2022/03/24 04:32:22;;;;;;;34.05;21.80;;;8.30;53.60;;;;;;5069152;28;20566;-62
2022/03/24 04:34:47;;;;;;;30.80;21.15;;;8.20;53.50;;;;;;5068891;28;20024;-63
2022/03/24 04:37:15;;;;;;;32.78;21.42;;;8.20;53.30;;;;;;5056885;28;20063;-59
2022/03/24 04:39:41;;;;;;;29.35;21.50;;;8.10;53.00;;;;;;5068111;28;20040;-59
2022/03/24 04:42:08;;;;;;;35.78;22.27;;;8.10;53.60;;;;;;5050102;28;20029;-58
2022/03/24 04:44:35;;;;;;;32.20;21.13;;;8.10;53.50;;;;;;5069046;28;20043;-62
2022/03/24 04:47:01;;;;;;;29.50;20.77;;;8.10;54.40;;;;;;5069010;28;20028;-63
2022/03/24 04:49:27;;;;;;;31.52;22.58;;;8.00;54.20;;;;;;5067796;28;20035;-63
2022/03/24 04:51:53;;;;;;;34.15;21.88;;;8.00;53.60;;;;;;5069044;28;20387;-62
2022/03/24 04:54:19;;;;;;;29.30;21.35;;;8.00;54.00;;;;;;5067881;28;20021;-58
2022/03/24 04:56:45;;;;;;;30.88;21.83;;;7.90;54.40;;;;;;5066604;28;20043;-63
2022/03/24 04:59:11;;;;;;;29.95;21.70;;;7.90;54.90;;;;;;5068499;28;20054;-59
2022/03/24 05:01:37;;;;;;;35.63;22.92;;;7.90;55.30;;;;;;5069253;28;20495;-60
2022/03/24 05:04:04;;;;;;;31.10;21.27;;;7.80;55.00;;;;;;5068437;28;20036;-62
2022/03/24 05:06:31;;;;;;;31.27;22.00;;;7.80;54.50;;;;;;5068447;28;20037;-58
2022/03/24 05:08:56;;;;;;;30.63;21.83;;;7.80;55.20;;;;;;5067742;28;20052;-58
2022/03/24 05:11:22;;;;;;;31.45;22.27;;;7.70;55.50;;;;;;5065146;28;20102;-63
2022/03/24 05:13:48;;;;;;;32.20;22.08;;;7.70;55.40;;;;;;5066798;28;20033;-63
2022/03/24 05:16:14;;;;;;;29.85;22.13;;;7.70;55.40;;;;;;5069079;28;20060;-58
2022/03/24 05:18:40;;;;;;;30.20;21.27;;;7.60;55.80;;;;;;5050266;28;20051;-63
2022/03/24 05:21:05;;;;;;;34.53;21.63;;;7.60;56.00;;;;;;5068561;28;20037;-63
2022/03/24 05:23:31;;;;;;;28.20;21.05;;;7.50;56.20;;;;;;5067710;28;20052;-63
2022/03/24 05:25:58;;;;;;;31.42;22.27;;;7.50;56.40;;;;;;5068347;28;20035;-63
2022/03/24 05:28:24;;;;;;;30.45;21.60;;;7.50;56.60;;;;;;5067510;28;20045;-63
2022/03/24 05:30:50;;;;;;;32.85;23.27;;;7.50;56.90;;;;;;5067651;28;20581;-63
2022/03/24 05:33:15;;;;;;;31.90;21.30;;;7.50;57.00;;;;;;5049474;28;20040;-63
2022/03/24 05:35:41;;;;;;;33.20;23.02;;;7.40;56.30;;;;;;5048673;28;20052;-63
2022/03/24 05:38:07;;;;;;;32.50;22.45;;;7.40;55.70;;;;;;5067163;28;20381;-63
2022/03/24 05:40:35;;;;;;;31.83;21.17;;;7.40;55.40;;;;;;5067962;28;20079;-63
2022/03/24 05:43:01;;;;;;;32.78;22.20;;;7.40;55.20;;;;;;5068050;28;20487;-63
2022/03/24 05:45:27;;;;;;;30.15;22.98;;;7.40;55.70;;;;;;5068350;28;20031;-63
2022/03/24 05:47:53;;;;;;;30.23;21.90;;;7.40;56.30;;;;;;5068323;28;20024;-62
2022/03/24 05:50:19;;;;;;;33.47;22.08;;;7.30;56.80;;;;;;5050658;28;20374;-58
2022/03/24 05:52:45;;;;;;;28.40;21.30;;;7.30;56.80;;;;;;5063787;28;20036;-59
2022/03/24 05:55:11;;;;;;;27.40;20.58;;;7.30;56.90;;;;;;5066749;28;20032;-62
2022/03/24 05:57:39;;;;;;;31.77;22.35;;;7.30;57.20;;;;;;5066212;28;20021;-62
2022/03/24 06:00:06;;;;;;;35.22;23.25;;;7.30;57.10;;;;;;5062577;28;20103;-62
2022/03/24 06:02:33;;;;;;;33.67;22.00;;;7.30;57.00;;;;;;5035862;28;20021;-62
2022/03/24 06:04:59;;;;;;;30.60;21.50;;;7.30;57.10;;;;;;5064492;28;20032;-63
2022/03/24 06:07:25;;;;;;;32.50;22.02;;;7.30;57.20;;;;;;5067846;28;20487;-62
2022/03/24 06:09:51;;;;;;;32.75;22.90;;;7.30;56.90;;;;;;5048447;28;20427;-63
2022/03/24 06:12:18;;;;;;;34.35;22.38;;;7.30;56.10;;;;;;5077598;28;20109;-63
2022/03/24 06:14:43;;;;;;;30.10;21.25;;;7.30;55.70;;;;;;5066959;28;20025;-63
2022/03/24 06:17:09;;;;;;;32.75;22.30;;;7.30;55.40;;;;;;5065112;28;20036;-63
2022/03/24 06:19:36;;;;;;;32.03;22.40;;;7.40;55.30;;;;;;5064176;28;20115;-63
2022/03/24 06:22:05;;;;;;;35.80;21.98;;;7.40;55.20;;;;;;5073971;28;20062;-63
2022/03/24 06:24:31;;;;;;;31.98;23.23;;;7.40;55.40;;;;;;5062790;28;20024;-63
2022/03/24 06:26:58;;;;;;;33.10;22.27;;;7.40;55.50;;;;;;5067560;28;20040;-63
2022/03/24 06:29:24;;;;;;;34.47;23.27;;;7.50;56.40;;;;;;5067325;28;20040;-63
2022/03/24 06:31:50;;;;;;;33.85;22.65;;;7.50;56.80;;;;;;5063782;28;20021;-58
2022/03/24 06:34:16;;;;;;;33.95;23.73;;;7.60;56.90;;;;;;5049149;28;20568;-58
2022/03/24 06:36:42;;;;;;;31.52;23.00;;;7.60;57.20;;;;;;5069775;28;20025;-59
2022/03/24 06:39:08;;;;;;;33.53;21.92;;;7.60;57.80;;;;;;5070135;28;20047;-59
2022/03/24 06:41:34;;;;;;;35.67;23.35;;;7.60;58.30;;;;;;5071686;28;20028;-59
2022/03/24 06:44:00;;;;;;;32.47;23.05;;;7.70;58.50;;;;;;5071436;28;20394;-59
2022/03/24 06:46:27;;;;;;;30.20;22.63;;;7.70;58.30;;;;;;5053604;28;20021;-59
2022/03/24 06:48:54;;;;;;;32.45;22.67;;;7.80;58.00;;;;;;5070244;28;20028;-63
2022/03/24 06:51:20;;;;;;;31.38;23.05;;;7.80;57.80;;;;;;5071847;28;20025;-63
2022/03/24 06:53:45;;;;;;;38.35;24.13;;;7.90;57.60;;;;;;5070549;28;20426;-63
2022/03/24 06:56:11;;;;;;;33.60;22.33;;;8.00;57.50;;;;;;5071223;28;20028;-63
2022/03/24 06:58:37;;;;;;;32.42;21.92;;;8.10;57.10;;;;;;5070613;28;20029;-63
2022/03/24 07:01:03;;;;;;;34.72;23.15;;;8.20;57.00;;;;;;5053198;28;20424;-63
2022/03/24 07:03:29;;;;;;;28.90;21.77;;;8.30;57.10;;;;;;5070923;28;20533;-63
2022/03/24 07:05:55;;;;;;;29.75;20.95;;;8.40;57.10;;;;;;5070598;28;20099;-63
2022/03/24 07:08:23;;;;;;;29.58;20.63;;;8.50;57.20;;;;;;5070268;28;20036;-64
2022/03/24 07:10:49;;;;;;;27.05;20.13;;;8.60;57.40;;;;;;5070377;28;20067;-63
2022/03/24 07:13:16;;;;;;;28.38;21.35;;;8.70;57.40;;;;;;5071027;28;20039;-63
2022/03/24 07:15:42;;;;;;;29.65;20.13;;;8.70;57.10;;;;;;5070689;28;20131;-63
2022/03/24 07:18:08;;;;;;;27.35;20.40;;;8.80;56.70;;;;;;5070226;28;20032;-63
2022/03/24 07:20:35;;;;;;;28.08;20.45;;;8.90;56.30;;;;;;5069170;28;20044;-63
2022/03/24 07:23:04;;;;;;;32.33;20.85;;;9.00;56.10;;;;;;5067983;28;20032;-63
2022/03/24 07:25:31;;;;;;;28.48;19.77;;;9.10;55.90;;;;;;5070073;28;20086;-63
2022/03/24 07:27:57;;;;;;;24.80;18.77;;;9.20;55.70;;;;;;5052335;28;20124;-62
2022/03/24 07:30:23;;;;;;;28.17;19.52;;;9.30;55.60;;;;;;5051027;28;20041;-59
2022/03/24 07:32:49;;;;;;;24.55;18.90;;;9.40;55.40;;;;;;5048657;28;20050;-59
2022/03/24 07:35:18;;;;;;;27.05;20.38;;;9.40;55.30;;;;;;5070631;28;20768;-62
2022/03/24 07:37:44;;;;;;;24.95;19.27;;;9.50;55.40;;;;;;5070074;28;20028;-63
2022/03/24 07:40:10;;;;;;;28.15;20.02;;;9.60;55.40;;;;;;5052308;28;20264;-59
2022/03/24 07:42:37;;;;;;;26.08;19.30;;;9.70;55.00;;;;;;5067163;28;20499;-59
2022/03/24 07:45:04;;;;;;;27.67;18.83;;;9.80;54.80;;;;;;5065542;28;20505;-59
2022/03/24 07:47:30;;;;;;;23.30;18.38;;;9.90;54.70;;;;;;5069815;28;20033;-59
2022/03/24 07:49:56;;;;;;;24.02;18.30;;;10.00;54.30;;;;;;5068950;28;20509;-59
2022/03/24 07:52:27;;;;;;;26.50;19.02;;;10.10;53.80;;;;;;5055305;28;20032;-59
2022/03/24 07:54:55;;;;;;;24.67;18.73;;;10.20;53.00;;;;;;5070700;28;20016;-59
2022/03/24 07:57:30;;;;;;;24.85;18.98;;;10.40;52.20;;;;;;5069731;28;20029;-59
2022/03/24 07:59:57;;;;;;;22.48;16.65;;;10.50;51.50;;;;;;5069322;28;20353;-59
2022/03/24 08:02:23;;;;;;;21.67;17.60;;;10.60;50.90;;;;;;5069360;28;20023;-62
2022/03/24 08:04:49;;;;;;;21.80;17.20;;;10.80;50.30;;;;;;5062243;28;20028;-59
2022/03/24 08:07:15;;;;;;;20.40;16.67;;;10.90;49.70;;;;;;5059582;28;20043;-60
2022/03/24 08:09:41;;;;;;;19.60;15.80;;;11.00;49.10;;;;;;5045529;28;20044;-59
2022/03/24 08:12:09;;;;;;;21.25;16.23;;;11.10;49.00;;;;;;5062172;28;20029;-59
2022/03/24 08:14:34;;;;;;;21.75;15.65;;;11.20;48.50;;;;;;5069484;28;20024;-61
2022/03/24 08:17:00;;;;;;;20.27;15.70;;;11.30;48.10;;;;;;5069898;28;20104;-59
2022/03/24 08:19:26;;;;;;;20.10;16.73;;;11.40;48.50;;;;;;5068869;28;20025;-59
2022/03/24 08:21:52;;;;;;;20.15;16.02;;;11.50;47.70;;;;;;5070010;28;20131;-59
2022/03/24 08:24:18;;;;;;;19.90;15.93;;;11.60;47.20;;;;;;5068809;28;20124;-61
2022/03/24 08:26:43;;;;;;;21.90;16.02;;;11.70;46.90;;;;;;5068240;28;20474;-58
2022/03/24 08:29:09;;;;;;;22.80;18.15;;;11.80;46.50;;;;;;5036095;28;20166;-62
2022/03/24 08:31:35;;;;;;;18.80;16.13;;;12.00;45.20;;;;;;5053852;28;20032;-59
2022/03/24 08:34:01;;;;;;;20.40;15.95;;;12.10;45.50;;;;;;5044158;28;20369;-59
2022/03/24 08:36:27;;;;;;;18.73;15.73;;;12.20;45.40;;;;;;5046631;28;20272;-62
2022/03/24 08:38:53;;;;;;;16.85;14.35;;;12.30;45.40;;;;;;5048022;28;20041;-63
2022/03/24 08:41:19;;;;;;;17.60;13.98;;;12.40;45.00;;;;;;5049806;28;20048;-58
2022/03/24 08:43:45;;;;;;;17.92;14.25;;;12.50;44.70;;;;;;5046683;28;20467;-59
2022/03/24 08:46:10;;;;;;;14.93;12.90;;;12.60;44.40;;;;;;5047855;28;20045;-59
2022/03/24 08:48:36;;;;;;;15.90;13.38;;;12.70;43.70;;;;;;5042341;28;20033;-59
2022/03/24 08:51:03;;;;;;;15.13;13.40;;;12.80;43.40;;;;;;5047843;28;20049;-59
2022/03/24 08:53:29;;;;;;;16.20;13.93;;;12.80;43.40;;;;;;5049360;28;20025;-59
2022/03/24 08:55:55;;;;;;;16.88;13.20;;;13.00;42.90;;;;;;5051558;28;20486;-59
2022/03/24 08:58:22;;;;;;;15.68;13.45;;;13.10;42.20;;;;;;5045162;28;20029;-59
2022/03/24 09:00:48;;;;;;;15.45;13.52;;;13.30;41.70;;;;;;5044898;28;20039;-61
2022/03/24 09:03:14;;;;;;;15.20;13.60;;;13.40;41.20;;;;;;5043813;28;20037;-62
2022/03/24 09:05:40;;;;;;;16.20;14.32;;;13.50;40.70;;;;;;5047141;28;20056;-62
2022/03/24 09:08:06;;;;;;;16.90;14.60;;;13.60;40.30;;;;;;5026520;28;20033;-62
2022/03/24 09:10:32;;;;;;;17.10;14.93;;;13.70;40.10;;;;;;5042166;28;20390;-62
2022/03/24 09:12:58;;;;;;;19.90;15.73;;;13.80;39.70;;;;;;5040454;28;20078;-62
2022/03/24 09:15:24;;;;;;;20.98;16.38;;;14.00;39.80;;;;;;5032232;28;20075;-62
2022/03/24 09:17:49;;;;;;;19.50;16.55;;;14.00;39.30;;;;;;5018409;28;20033;-62
2022/03/24 09:20:18;;;;;;;22.90;16.42;;;14.20;39.30;;;;;;5047043;28;20443;-62
2022/03/24 09:22:46;;;;;;;20.83;17.02;;;14.30;39.10;;;;;;5041702;28;20025;-62
2022/03/24 09:25:14;;;;;;;20.50;16.00;;;14.40;39.30;;;;;;5047140;28;20092;-62
2022/03/24 09:27:41;;;;;;;20.88;15.05;;;14.40;39.30;;;;;;5046947;28;20041;-62
2022/03/24 09:30:09;;;;;;;20.20;15.82;;;14.60;39.40;;;;;;5064247;28;20076;-62
2022/03/24 09:32:37;;;;;;;20.05;15.35;;;14.70;39.50;;;;;;5067371;28;20060;-62
2022/03/24 09:35:04;;;;;;;20.00;15.40;;;14.70;39.50;;;;;;5059417;28;20021;-63
2022/03/24 09:37:32;;;;;;;20.52;14.75;;;14.80;39.50;;;;;;5067349;28;20024;-62
2022/03/24 09:39:58;;;;;;;19.08;14.85;;;14.90;39.60;;;;;;5048500;28;20359;-62
2022/03/24 09:42:23;;;;;;;20.50;13.68;;;15.00;39.70;;;;;;5049332;28;20123;-63
2022/03/24 09:44:49;;;;;;;20.73;14.35;;;15.10;39.90;;;;;;5048313;28;20458;-62
2022/03/24 09:47:15;;;;;;;24.15;13.57;;;15.20;39.80;;;;;;5067576;28;20029;-62
2022/03/24 09:49:42;;;;;;;18.63;13.18;;;15.30;40.20;;;;;;5072603;28;20042;-63
2022/03/24 09:52:11;;;;;;;20.75;12.80;;;15.40;40.20;;;;;;5070661;28;20021;-60
2022/03/24 09:54:37;;;;;;;15.25;12.02;;;15.50;40.20;;;;;;5059151;28;20063;-63
2022/03/24 09:57:08;;;;;;;23.25;12.20;;;15.60;40.30;;;;;;5063842;28;20449;-63
2022/03/24 09:59:35;;;;;;;18.15;13.15;;;15.70;40.60;;;;;;5064056;28;20075;-63
2022/03/24 10:02:03;;;;;;;16.63;13.00;;;15.90;40.30;;;;;;5067580;28;20032;-63
2022/03/24 10:04:53;;;;;;;20.70;12.43;;;15.90;40.40;;;;;;5066411;28;20086;-63
2022/03/24 10:07:23;;;;;;;21.48;12.70;;;16.00;40.30;;;;;;5066796;28;20487;-63
2022/03/24 10:09:53;;;;;;;19.13;13.50;;;16.10;40.10;;;;;;5066138;28;20486;-60
2022/03/24 10:12:34;;;;;;;21.88;13.35;;;16.20;40.10;;;;;;5068323;28;20439;-60
2022/03/24 10:15:20;;;;;;;18.77;13.18;;;16.30;40.00;;;;;;5087591;28;20387;-60
2022/03/24 10:17:54;;;;;;;26.42;14.15;;;16.40;39.60;;;;;;5038694;28;20063;-60
2022/03/24 10:20:21;;;;;;;18.88;13.80;;;16.50;39.30;;;;;;5071357;28;20411;-60
2022/03/24 10:23:05;;;;;;;16.45;14.05;;;16.50;39.20;;;;;;5085674;28;20475;-60
2022/03/24 10:25:37;;;;;;;19.15;13.25;;;16.60;38.70;;;;;;5055439;28;20383;-63
2022/03/24 10:28:02;;;;;;;17.58;12.60;;;16.70;39.20;;;;;;5073530;28;20120;-63
2022/03/24 10:30:28;;;;;;;18.45;13.38;;;16.80;39.30;;;;;;5091642;28;20127;-60
2022/03/24 10:32:56;;;;;;;17.63;11.98;;;16.90;39.10;;;;;;5090944;28;20059;-60
2022/03/24 10:35:22;;;;;;;18.85;12.82;;;17.10;38.70;;;;;;5074415;28;20021;-63
2022/03/24 10:37:51;;;;;;;20.40;13.40;;;17.20;38.50;;;;;;5076659;28;20024;-60
2022/03/24 10:40:17;;;;;;;18.13;14.20;;;17.20;37.80;;;;;;5065925;28;20063;-62
2022/03/24 10:42:43;;;;;;;18.63;13.55;;;17.30;37.70;;;;;;5070057;28;20032;-62
2022/03/24 10:45:22;;;;;;;21.88;14.90;;;17.40;37.90;;;;;;5069287;28;20033;-62
2022/03/24 10:48:02;;;;;;;20.00;13.73;;;17.40;37.70;;;;;;5070137;28;20020;-60
2022/03/24 10:50:40;;;;;;;19.98;13.77;;;17.60;37.20;;;;;;5065015;28;20033;-62
2022/03/24 10:53:19;;;;;;;16.80;12.75;;;17.60;36.30;;;;;;5068648;28;20024;-59
2022/03/24 10:55:47;;;;;;;20.23;13.73;;;17.70;35.50;;;;;;5065885;28;20105;-62
2022/03/24 10:58:18;;;;;;;15.48;12.18;;;17.80;35.50;;;;;;5051737;28;20029;-60
2022/03/24 11:00:47;;;;;;;20.92;14.95;;;17.90;35.60;;;;;;5069599;28;20033;-62
2022/03/24 11:03:16;;;;;;;18.27;13.25;;;18.00;34.30;;;;;;5066174;28;20028;-62
2022/03/24 11:05:42;;;;;;;19.95;15.02;;;18.10;34.70;;;;;;5067860;28;20021;-62
2022/03/24 11:08:08;;;;;;;17.45;13.30;;;18.20;34.30;;;;;;5032735;28;20503;-63
2022/03/24 11:10:49;;;;;;;15.43;13.25;;;18.40;34.60;;;;;;5065499;28;20499;-62
2022/03/24 11:13:44;;;;;;;16.48;13.23;;;18.50;33.90;;;;;;5068923;28;20405;-62
2022/03/24 11:16:11;;;;;;;16.35;12.90;;;18.70;33.70;;;;;;5045080;28;20036;-63
2022/03/24 11:18:38;;;;;;;17.17;15.32;;;18.80;33.00;;;;;;5073185;28;20013;-62
2022/03/24 11:21:20;;;;;;;19.00;15.07;;;18.90;33.00;;;;;;5066118;28;20434;-60
2022/03/24 11:23:46;;;;;;;19.58;14.57;;;19.10;33.40;;;;;;5059634;28;20032;-62
2022/03/24 11:26:13;;;;;;;20.35;15.48;;;19.20;33.10;;;;;;5067449;28;20025;-59
2022/03/24 11:28:40;;;;;;;17.48;14.20;;;19.30;32.60;;;;;;5070170;28;20053;-64
2022/03/24 11:31:10;;;;;;;16.67;14.63;;;19.40;31.40;;;;;;5051720;28;20119;-63
2022/03/24 11:33:56;;;;;;;19.05;14.70;;;19.50;31.60;;;;;;5069822;28;20446;-60
2022/03/24 11:36:23;;;;;;;19.25;15.15;;;19.50;32.00;;;;;;5067049;28;20475;-60
2022/03/24 11:38:51;;;;;;;21.92;15.55;;;19.70;32.00;;;;;;5043872;28;20035;-60
2022/03/24 11:41:37;;;;;;;18.85;16.20;;;19.80;32.10;;;;;;5059087;28;20041;-62
2022/03/24 11:44:12;;;;;;;20.45;16.42;;;19.90;31.50;;;;;;5063150;28;20025;-63
2022/03/24 11:47:14;;;;;;;18.90;15.90;;;20.00;31.50;;;;;;5057495;28;20037;-60
2022/03/24 11:49:40;;;;;;;19.45;14.13;;;20.10;32.00;;;;;;5043546;28;20047;-63
2022/03/24 11:52:05;;;;;;;18.10;14.30;;;20.20;31.60;;;;;;5067344;28;20028;-60
2022/03/24 11:54:35;;;;;;;17.88;14.27;;;20.30;31.00;;;;;;5045007;28;20016;-62
2022/03/24 11:57:35;;;;;;;22.05;16.48;;;20.40;30.90;;;;;;5069167;28;20040;-62
2022/03/24 12:00:13;;;;;;;22.90;16.15;;;20.40;30.40;;;;;;5050433;28;20032;-63
2022/03/24 12:02:49;;;;;;;15.68;13.73;;;20.40;30.10;;;;;;5069025;28;20062;-62
2022/03/24 12:05:16;;;;;;;19.73;15.55;;;20.60;30.40;;;;;;5066955;28;20036;-63
2022/03/24 12:07:41;;;;;;;21.20;13.82;;;20.60;29.70;;;;;;5052709;28;20115;-60
2022/03/24 12:10:10;;;;;;;20.05;14.32;;;20.70;29.50;;;;;;5068001;28;20558;-63
2022/03/24 12:12:36;;;;;;;17.20;14.32;;;20.80;29.60;;;;;;5066909;28;20113;-63
2022/03/24 12:15:17;;;;;;;17.27;14.40;;;20.90;29.60;;;;;;5071357;28;20368;-62
2022/03/24 12:18:03;;;;;;;18.08;13.88;;;21.00;29.40;;;;;;5059759;28;20063;-62
2022/03/24 12:20:39;;;;;;;20.25;14.85;;;21.20;28.80;;;;;;5062938;28;20115;-60
2022/03/24 12:23:05;;;;;;;17.33;13.63;;;21.20;28.10;;;;;;5068225;28;20028;-62
2022/03/24 12:25:32;;;;;;;18.45;14.00;;;21.20;28.60;;;;;;5067702;28;20056;-62
2022/03/24 12:28:12;;;;;;;16.17;12.98;;;21.20;28.50;;;;;;5068224;28;20650;-62
2022/03/24 12:30:41;;;;;;;17.33;13.25;;;21.30;27.90;;;;;;5059684;28;20053;-62
2022/03/24 12:33:08;;;;;;;16.02;12.85;;;21.40;27.10;;;;;;5064435;28;20024;-62
2022/03/24 12:35:51;;;;;;;14.98;12.25;;;21.40;27.60;;;;;;5050369;28;20044;-59
2022/03/24 12:38:32;;;;;;;15.55;11.40;;;21.40;27.80;;;;;;5067042;28;20017;-61
2022/03/24 12:41:04;;;;;;;13.55;11.07;;;21.50;27.50;;;;;;5051215;28;20081;-60